sensor_id;sensor_type;location;lat;lon;timestamp;P1;durP1;ratioP1;P2;durP2;ratioP2
10248;SDS011;5169;50.560;9.714;2023-12-20T00:02:08;1.70;;;1.60;;
10248;SDS011;5169;50.560;9.714;2023-12-20T00:04:34;2.03;;;1.63;;
10248;SDS011;5169;50.560;9.714;2023-12-20T00:06:59;2.37;;;1.73;;
10248;SDS011;5169;50.560;9.714;2023-12-20T00:09:45;2.53;;;1.60;;
10248;SDS011;5169;50.560;9.714;2023-12-20T00:12:11;1.70;;;1.40;;
10248;SDS011;5169;50.560;9.714;2023-12-20T00:14:39;1.70;;;1.23;;
10248;SDS011;5169;50.560;9.714;2023-12-20T00:17:04;1.63;;;1.40;;
10248;SDS011;5169;50.560;9.714;2023-12-20T00:19:30;1.50;;;1.30;;
10248;SDS011;5169;50.560;9.714;2023-12-20T00:21:58;2.07;;;1.40;;
10248;SDS011;5169;50.560;9.714;2023-12-20T00:24:26;1.70;;;1.30;;
10248;SDS011;5169;50.560;9.714;2023-12-20T00:26:51;1.93;;;1.37;;
10248;SDS011;5169;50.560;9.714;2023-12-20T00:29:17;1.70;;;1.40;;
10248;SDS011;5169;50.560;9.714;2023-12-20T00:31:43;2.40;;;1.70;;
10248;SDS011;5169;50.560;9.714;2023-12-20T00:34:08;1.43;;;1.20;;
10248;SDS011;5169;50.560;9.714;2023-12-20T00:36:34;1.87;;;1.37;;
10248;SDS011;5169;50.560;9.714;2023-12-20T00:38:59;1.40;;;1.17;;
10248;SDS011;5169;50.560;9.714;2023-12-20T00:41:25;1.50;;;1.40;;
10248;SDS011;5169;50.560;9.714;2023-12-20T00:43:53;1.93;;;1.30;;
10248;SDS011;5169;50.560;9.714;2023-12-20T00:46:18;1.93;;;1.33;;
10248;SDS011;5169;50.560;9.714;2023-12-20T00:48:44;1.53;;;1.43;;
10248;SDS011;5169;50.560;9.714;2023-12-20T00:51:12;1.73;;;1.40;;
10248;SDS011;5169;50.560;9.714;2023-12-20T00:53:42;1.67;;;1.30;;
10248;SDS011;5169;50.560;9.714;2023-12-20T00:56:08;1.67;;;1.50;;
10248;SDS011;5169;50.560;9.714;2023-12-20T00:58:34;1.50;;;1.40;;
10248;SDS011;5169;50.560;9.714;2023-12-20T01:01:02;1.70;;;1.40;;
10248;SDS011;5169;50.560;9.714;2023-12-20T01:03:29;1.77;;;1.60;;
10248;SDS011;5169;50.560;9.714;2023-12-20T01:05:54;2.40;;;1.67;;
10248;SDS011;5169;50.560;9.714;2023-12-20T01:08:20;1.93;;;1.60;;
10248;SDS011;5169;50.560;9.714;2023-12-20T01:10:45;1.70;;;1.37;;
10248;SDS011;5169;50.560;9.714;2023-12-20T01:13:11;1.50;;;1.33;;
10248;SDS011;5169;50.560;9.714;2023-12-20T01:15:42;1.23;;;1.13;;
10248;SDS011;5169;50.560;9.714;2023-12-20T01:18:07;1.57;;;1.30;;
10248;SDS011;5169;50.560;9.714;2023-12-20T01:20:33;1.40;;;1.13;;
10248;SDS011;5169;50.560;9.714;2023-12-20T01:22:59;1.37;;;1.27;;
10248;SDS011;5169;50.560;9.714;2023-12-20T01:25:24;1.97;;;1.40;;
10248;SDS011;5169;50.560;9.714;2023-12-20T01:27:52;1.30;;;1.20;;
10248;SDS011;5169;50.560;9.714;2023-12-20T01:30:21;1.30;;;1.20;;
10248;SDS011;5169;50.560;9.714;2023-12-20T01:32:47;1.30;;;1.00;;
10248;SDS011;5169;50.560;9.714;2023-12-20T01:35:12;1.20;;;1.10;;
10248;SDS011;5169;50.560;9.714;2023-12-20T01:37:38;1.30;;;1.20;;
10248;SDS011;5169;50.560;9.714;2023-12-20T01:40:04;1.20;;;1.10;;
10248;SDS011;5169;50.560;9.714;2023-12-20T01:42:35;1.20;;;1.10;;
10248;SDS011;5169;50.560;9.714;2023-12-20T01:45:01;1.20;;;1.10;;
10248;SDS011;5169;50.560;9.714;2023-12-20T01:47:28;2.87;;;1.30;;
10248;SDS011;5169;50.560;9.714;2023-12-20T01:49:54;1.40;;;1.30;;
10248;SDS011;5169;50.560;9.714;2023-12-20T01:52:21;1.27;;;1.17;;
10248;SDS011;5169;50.560;9.714;2023-12-20T01:54:50;1.60;;;1.30;;
10248;SDS011;5169;50.560;9.714;2023-12-20T01:57:19;1.50;;;1.33;;
10248;SDS011;5169;50.560;9.714;2023-12-20T01:59:45;1.73;;;1.33;;
10248;SDS011;5169;50.560;9.714;2023-12-20T02:02:11;1.53;;;1.30;;
10248;SDS011;5169;50.560;9.714;2023-12-20T02:04:37;1.47;;;1.37;;
10248;SDS011;5169;50.560;9.714;2023-12-20T02:07:05;1.33;;;1.23;;
10248;SDS011;5169;50.560;9.714;2023-12-20T02:09:36;1.57;;;1.47;;
10248;SDS011;5169;50.560;9.714;2023-12-20T02:12:02;1.77;;;1.53;;
10248;SDS011;5169;50.560;9.714;2023-12-20T02:14:29;2.13;;;1.57;;
10248;SDS011;5169;50.560;9.714;2023-12-20T02:16:56;2.07;;;1.73;;
10248;SDS011;5169;50.560;9.714;2023-12-20T02:19:22;2.40;;;1.90;;
10248;SDS011;5169;50.560;9.714;2023-12-20T02:21:48;2.93;;;1.70;;
10248;SDS011;5169;50.560;9.714;2023-12-20T02:24:13;1.97;;;1.67;;
10248;SDS011;5169;50.560;9.714;2023-12-20T02:26:41;2.07;;;1.60;;
10248;SDS011;5169;50.560;9.714;2023-12-20T02:29:09;1.80;;;1.60;;
10248;SDS011;5169;50.560;9.714;2023-12-20T02:31:35;2.03;;;1.83;;
10248;SDS011;5169;50.560;9.714;2023-12-20T02:34:00;1.70;;;1.60;;
10248;SDS011;5169;50.560;9.714;2023-12-20T02:36:26;1.70;;;1.60;;
10248;SDS011;5169;50.560;9.714;2023-12-20T02:38:52;1.60;;;1.50;;
10248;SDS011;5169;50.560;9.714;2023-12-20T02:41:19;2.10;;;1.70;;
10248;SDS011;5169;50.560;9.714;2023-12-20T02:43:47;1.60;;;1.50;;
10248;SDS011;5169;50.560;9.714;2023-12-20T02:46:15;1.83;;;1.70;;
10248;SDS011;5169;50.560;9.714;2023-12-20T02:48:44;1.70;;;1.60;;
10248;SDS011;5169;50.560;9.714;2023-12-20T02:51:09;1.70;;;1.43;;
10248;SDS011;5169;50.560;9.714;2023-12-20T02:53:35;1.80;;;1.50;;
10248;SDS011;5169;50.560;9.714;2023-12-20T02:56:00;1.80;;;1.70;;
10248;SDS011;5169;50.560;9.714;2023-12-20T02:58:26;1.90;;;1.70;;
10248;SDS011;5169;50.560;9.714;2023-12-20T03:00:52;2.13;;;1.90;;
10248;SDS011;5169;50.560;9.714;2023-12-20T03:03:17;2.17;;;1.97;;
10248;SDS011;5169;50.560;9.714;2023-12-20T03:05:43;2.67;;;2.20;;
10248;SDS011;5169;50.560;9.714;2023-12-20T03:08:10;2.70;;;2.33;;
10248;SDS011;5169;50.560;9.714;2023-12-20T03:10:36;2.20;;;2.00;;
10248;SDS011;5169;50.560;9.714;2023-12-20T03:13:01;2.30;;;2.10;;
10248;SDS011;5169;50.560;9.714;2023-12-20T03:15:31;2.60;;;2.40;;
10248;SDS011;5169;50.560;9.714;2023-12-20T03:17:57;2.63;;;2.43;;
10248;SDS011;5169;50.560;9.714;2023-12-20T03:20:27;2.50;;;2.30;;
10248;SDS011;5169;50.560;9.714;2023-12-20T03:22:53;2.90;;;2.60;;
10248;SDS011;5169;50.560;9.714;2023-12-20T03:25:18;3.20;;;2.90;;
10248;SDS011;5169;50.560;9.714;2023-12-20T03:27:44;3.07;;;2.77;;
10248;SDS011;5169;50.560;9.714;2023-12-20T03:30:10;2.60;;;2.40;;
10248;SDS011;5169;50.560;9.714;2023-12-20T03:32:36;3.03;;;2.73;;
10248;SDS011;5169;50.560;9.714;2023-12-20T03:35:03;2.83;;;2.43;;
10248;SDS011;5169;50.560;9.714;2023-12-20T03:37:31;3.40;;;3.07;;
10248;SDS011;5169;50.560;9.714;2023-12-20T03:39:57;3.30;;;3.00;;
10248;SDS011;5169;50.560;9.714;2023-12-20T03:42:25;4.10;;;3.70;;
10248;SDS011;5169;50.560;9.714;2023-12-20T03:44:50;4.07;;;3.67;;
10248;SDS011;5169;50.560;9.714;2023-12-20T03:47:16;4.30;;;3.90;;
10248;SDS011;5169;50.560;9.714;2023-12-20T03:49:46;4.80;;;4.30;;
10248;SDS011;5169;50.560;9.714;2023-12-20T03:52:14;5.23;;;4.37;;
10248;SDS011;5169;50.560;9.714;2023-12-20T03:54:40;5.50;;;4.77;;
10248;SDS011;5169;50.560;9.714;2023-12-20T03:57:07;4.70;;;4.30;;
10248;SDS011;5169;50.560;9.714;2023-12-20T03:59:37;4.73;;;4.00;;
10248;SDS011;5169;50.560;9.714;2023-12-20T04:02:05;4.53;;;4.07;;
10248;SDS011;5169;50.560;9.714;2023-12-20T04:04:32;4.10;;;3.70;;
10248;SDS011;5169;50.560;9.714;2023-12-20T04:06:58;5.13;;;3.90;;
10248;SDS011;5169;50.560;9.714;2023-12-20T04:09:26;4.00;;;3.60;;
10248;SDS011;5169;50.560;9.714;2023-12-20T04:11:54;4.03;;;3.30;;
10248;SDS011;5169;50.560;9.714;2023-12-20T04:14:19;3.60;;;3.23;;
10248;SDS011;5169;50.560;9.714;2023-12-20T04:16:45;3.37;;;3.07;;
10248;SDS011;5169;50.560;9.714;2023-12-20T04:19:13;3.87;;;3.50;;
10248;SDS011;5169;50.560;9.714;2023-12-20T04:21:41;4.10;;;3.70;;
10248;SDS011;5169;50.560;9.714;2023-12-20T04:24:07;3.70;;;3.33;;
10248;SDS011;5169;50.560;9.714;2023-12-20T04:26:33;4.20;;;3.80;;
10248;SDS011;5169;50.560;9.714;2023-12-20T04:29:01;3.93;;;3.53;;
10248;SDS011;5169;50.560;9.714;2023-12-20T04:31:29;5.13;;;4.10;;
10248;SDS011;5169;50.560;9.714;2023-12-20T04:33:57;3.93;;;3.50;;
10248;SDS011;5169;50.560;9.714;2023-12-20T04:36:22;4.13;;;3.50;;
10248;SDS011;5169;50.560;9.714;2023-12-20T04:38:52;3.40;;;3.00;;
10248;SDS011;5169;50.560;9.714;2023-12-20T04:41:18;3.73;;;3.13;;
10248;SDS011;5169;50.560;9.714;2023-12-20T04:43:44;4.57;;;3.07;;
10248;SDS011;5169;50.560;9.714;2023-12-20T04:46:10;2.90;;;2.53;;
10248;SDS011;5169;50.560;9.714;2023-12-20T04:48:35;2.90;;;2.57;;
10248;SDS011;5169;50.560;9.714;2023-12-20T04:51:01;3.53;;;2.73;;
10248;SDS011;5169;50.560;9.714;2023-12-20T04:53:27;2.40;;;2.20;;
10248;SDS011;5169;50.560;9.714;2023-12-20T04:55:52;2.83;;;2.13;;
10248;SDS011;5169;50.560;9.714;2023-12-20T04:58:18;3.50;;;2.10;;
10248;SDS011;5169;50.560;9.714;2023-12-20T05:00:44;3.63;;;2.00;;
10248;SDS011;5169;50.560;9.714;2023-12-20T05:03:12;2.40;;;1.70;;
10248;SDS011;5169;50.560;9.714;2023-12-20T05:05:37;2.20;;;2.00;;
10248;SDS011;5169;50.560;9.714;2023-12-20T05:08:04;2.60;;;1.70;;
10248;SDS011;5169;50.560;9.714;2023-12-20T05:10:29;2.00;;;1.80;;
10248;SDS011;5169;50.560;9.714;2023-12-20T05:12:55;2.10;;;1.83;;
10248;SDS011;5169;50.560;9.714;2023-12-20T05:15:21;1.90;;;1.70;;
10248;SDS011;5169;50.560;9.714;2023-12-20T05:17:46;2.67;;;1.93;;
10248;SDS011;5169;50.560;9.714;2023-12-20T05:20:12;3.03;;;2.10;;
10248;SDS011;5169;50.560;9.714;2023-12-20T05:22:37;3.37;;;2.30;;
10248;SDS011;5169;50.560;9.714;2023-12-20T05:25:05;2.83;;;2.23;;
10248;SDS011;5169;50.560;9.714;2023-12-20T05:27:31;2.60;;;2.27;;
10248;SDS011;5169;50.560;9.714;2023-12-20T05:29:56;3.57;;;2.70;;
10248;SDS011;5169;50.560;9.714;2023-12-20T05:32:22;4.27;;;2.73;;
10248;SDS011;5169;50.560;9.714;2023-12-20T05:34:48;3.87;;;2.30;;
10248;SDS011;5169;50.560;9.714;2023-12-20T05:37:14;3.50;;;2.60;;
10248;SDS011;5169;50.560;9.714;2023-12-20T05:39:40;3.87;;;2.50;;
10248;SDS011;5169;50.560;9.714;2023-12-20T05:42:05;2.83;;;2.17;;
10248;SDS011;5169;50.560;9.714;2023-12-20T05:44:33;2.63;;;2.00;;
10248;SDS011;5169;50.560;9.714;2023-12-20T05:46:59;4.90;;;2.60;;
10248;SDS011;5169;50.560;9.714;2023-12-20T05:49:24;2.93;;;2.43;;
10248;SDS011;5169;50.560;9.714;2023-12-20T05:51:52;2.90;;;2.60;;
10248;SDS011;5169;50.560;9.714;2023-12-20T05:54:21;3.87;;;3.10;;
10248;SDS011;5169;50.560;9.714;2023-12-20T05:56:49;3.83;;;3.00;;
10248;SDS011;5169;50.560;9.714;2023-12-20T05:59:16;4.67;;;2.90;;
10248;SDS011;5169;50.560;9.714;2023-12-20T06:01:47;4.50;;;2.77;;
10248;SDS011;5169;50.560;9.714;2023-12-20T06:04:12;3.97;;;2.80;;
10248;SDS011;5169;50.560;9.714;2023-12-20T06:06:41;3.90;;;2.90;;
10248;SDS011;5169;50.560;9.714;2023-12-20T06:09:08;5.47;;;2.77;;
10248;SDS011;5169;50.560;9.714;2023-12-20T06:11:34;5.70;;;2.90;;
10248;SDS011;5169;50.560;9.714;2023-12-20T06:13:59;3.80;;;2.60;;
10248;SDS011;5169;50.560;9.714;2023-12-20T06:16:25;3.53;;;2.70;;
10248;SDS011;5169;50.560;9.714;2023-12-20T06:18:50;4.83;;;2.40;;
10248;SDS011;5169;50.560;9.714;2023-12-20T06:21:18;3.67;;;2.90;;
10248;SDS011;5169;50.560;9.714;2023-12-20T06:23:46;4.23;;;2.90;;
10248;SDS011;5169;50.560;9.714;2023-12-20T06:26:11;4.90;;;3.13;;
10248;SDS011;5169;50.560;9.714;2023-12-20T06:28:39;6.53;;;3.47;;
10248;SDS011;5169;50.560;9.714;2023-12-20T06:31:05;5.80;;;3.13;;
10248;SDS011;5169;50.560;9.714;2023-12-20T06:33:30;4.20;;;2.97;;
10248;SDS011;5169;50.560;9.714;2023-12-20T06:35:56;5.00;;;2.83;;
10248;SDS011;5169;50.560;9.714;2023-12-20T06:38:22;5.73;;;2.57;;
10248;SDS011;5169;50.560;9.714;2023-12-20T06:40:47;4.60;;;2.90;;
10248;SDS011;5169;50.560;9.714;2023-12-20T06:43:13;5.83;;;3.00;;
10248;SDS011;5169;50.560;9.714;2023-12-20T06:45:39;4.37;;;2.70;;
10248;SDS011;5169;50.560;9.714;2023-12-20T06:48:04;6.10;;;2.90;;
10248;SDS011;5169;50.560;9.714;2023-12-20T06:50:30;3.57;;;2.80;;
10248;SDS011;5169;50.560;9.714;2023-12-20T06:52:56;6.27;;;3.20;;
10248;SDS011;5169;50.560;9.714;2023-12-20T06:55:22;5.23;;;2.90;;
10248;SDS011;5169;50.560;9.714;2023-12-20T06:57:48;5.43;;;3.13;;
10248;SDS011;5169;50.560;9.714;2023-12-20T07:00:16;5.23;;;3.10;;
10248;SDS011;5169;50.560;9.714;2023-12-20T07:02:43;4.23;;;2.90;;
10248;SDS011;5169;50.560;9.714;2023-12-20T07:05:12;8.50;;;2.87;;
10248;SDS011;5169;50.560;9.714;2023-12-20T07:07:41;3.53;;;2.60;;
10248;SDS011;5169;50.560;9.714;2023-12-20T07:10:07;6.37;;;3.30;;
10248;SDS011;5169;50.560;9.714;2023-12-20T07:12:33;5.00;;;2.83;;
10248;SDS011;5169;50.560;9.714;2023-12-20T07:14:58;3.93;;;2.53;;
10248;SDS011;5169;50.560;9.714;2023-12-20T07:17:24;5.43;;;2.80;;
10248;SDS011;5169;50.560;9.714;2023-12-20T07:19:50;5.00;;;3.07;;
10248;SDS011;5169;50.560;9.714;2023-12-20T07:22:15;4.13;;;2.60;;
10248;SDS011;5169;50.560;9.714;2023-12-20T07:24:41;4.37;;;3.30;;
10248;SDS011;5169;50.560;9.714;2023-12-20T07:27:09;6.50;;;3.37;;
10248;SDS011;5169;50.560;9.714;2023-12-20T07:29:36;6.90;;;3.17;;
10248;SDS011;5169;50.560;9.714;2023-12-20T07:32:02;4.33;;;3.00;;
10248;SDS011;5169;50.560;9.714;2023-12-20T07:34:33;6.47;;;2.80;;
10248;SDS011;5169;50.560;9.714;2023-12-20T07:36:59;3.33;;;2.70;;
10248;SDS011;5169;50.560;9.714;2023-12-20T07:39:25;5.00;;;2.57;;
10248;SDS011;5169;50.560;9.714;2023-12-20T07:41:50;5.27;;;2.47;;
10248;SDS011;5169;50.560;9.714;2023-12-20T07:44:18;6.23;;;2.70;;
10248;SDS011;5169;50.560;9.714;2023-12-20T07:46:44;6.17;;;3.10;;
10248;SDS011;5169;50.560;9.714;2023-12-20T07:49:09;5.50;;;2.90;;
10248;SDS011;5169;50.560;9.714;2023-12-20T07:51:36;6.60;;;3.10;;
10248;SDS011;5169;50.560;9.714;2023-12-20T07:54:01;8.13;;;3.37;;
10248;SDS011;5169;50.560;9.714;2023-12-20T07:56:28;6.10;;;2.43;;
10248;SDS011;5169;50.560;9.714;2023-12-20T07:58:54;4.87;;;2.60;;
10248;SDS011;5169;50.560;9.714;2023-12-20T08:01:22;5.70;;;2.50;;
10248;SDS011;5169;50.560;9.714;2023-12-20T08:03:48;6.10;;;2.60;;
10248;SDS011;5169;50.560;9.714;2023-12-20T08:06:14;4.10;;;2.20;;
10248;SDS011;5169;50.560;9.714;2023-12-20T08:08:44;5.00;;;2.60;;
10248;SDS011;5169;50.560;9.714;2023-12-20T08:11:15;6.10;;;3.03;;
10248;SDS011;5169;50.560;9.714;2023-12-20T08:13:41;6.10;;;2.97;;
10248;SDS011;5169;50.560;9.714;2023-12-20T08:16:06;8.37;;;3.33;;
10248;SDS011;5169;50.560;9.714;2023-12-20T08:18:34;4.33;;;2.77;;
10248;SDS011;5169;50.560;9.714;2023-12-20T08:21:01;5.50;;;3.03;;
10248;SDS011;5169;50.560;9.714;2023-12-20T08:23:27;7.17;;;3.10;;
10248;SDS011;5169;50.560;9.714;2023-12-20T08:25:53;5.17;;;2.70;;
10248;SDS011;5169;50.560;9.714;2023-12-20T08:28:18;8.90;;;2.83;;
10248;SDS011;5169;50.560;9.714;2023-12-20T08:30:44;6.17;;;2.53;;
10248;SDS011;5169;50.560;9.714;2023-12-20T08:33:12;7.63;;;2.57;;
10248;SDS011;5169;50.560;9.714;2023-12-20T08:35:40;7.27;;;2.90;;
10248;SDS011;5169;50.560;9.714;2023-12-20T08:38:11;3.80;;;2.50;;
10248;SDS011;5169;50.560;9.714;2023-12-20T08:40:37;5.77;;;2.73;;
10248;SDS011;5169;50.560;9.714;2023-12-20T08:43:06;6.80;;;2.57;;
10248;SDS011;5169;50.560;9.714;2023-12-20T08:45:31;4.60;;;2.20;;
10248;SDS011;5169;50.560;9.714;2023-12-20T08:47:57;4.03;;;1.90;;
10248;SDS011;5169;50.560;9.714;2023-12-20T08:50:23;3.03;;;1.93;;
10248;SDS011;5169;50.560;9.714;2023-12-20T08:52:51;6.73;;;2.33;;
10248;SDS011;5169;50.560;9.714;2023-12-20T08:55:17;5.67;;;2.30;;
10248;SDS011;5169;50.560;9.714;2023-12-20T08:57:45;5.47;;;2.37;;
10248;SDS011;5169;50.560;9.714;2023-12-20T09:00:13;5.07;;;2.60;;
10248;SDS011;5169;50.560;9.714;2023-12-20T09:02:38;9.00;;;2.60;;
10248;SDS011;5169;50.560;9.714;2023-12-20T09:05:04;7.07;;;2.50;;
10248;SDS011;5169;50.560;9.714;2023-12-20T09:07:32;7.33;;;3.00;;
10248;SDS011;5169;50.560;9.714;2023-12-20T09:09:58;6.17;;;2.47;;
10248;SDS011;5169;50.560;9.714;2023-12-20T09:12:24;5.37;;;2.60;;
10248;SDS011;5169;50.560;9.714;2023-12-20T09:14:52;4.10;;;2.60;;
10248;SDS011;5169;50.560;9.714;2023-12-20T09:17:18;8.30;;;2.63;;
10248;SDS011;5169;50.560;9.714;2023-12-20T09:19:46;6.50;;;2.33;;
10248;SDS011;5169;50.560;9.714;2023-12-20T09:22:14;4.10;;;2.00;;
10248;SDS011;5169;50.560;9.714;2023-12-20T09:24:43;4.60;;;2.00;;
10248;SDS011;5169;50.560;9.714;2023-12-20T09:27:08;6.83;;;2.20;;
10248;SDS011;5169;50.560;9.714;2023-12-20T09:29:36;6.77;;;2.50;;
10248;SDS011;5169;50.560;9.714;2023-12-20T09:32:02;7.97;;;2.20;;
10248;SDS011;5169;50.560;9.714;2023-12-20T09:34:28;5.63;;;2.20;;
10248;SDS011;5169;50.560;9.714;2023-12-20T09:36:56;4.53;;;1.73;;
10248;SDS011;5169;50.560;9.714;2023-12-20T09:39:23;4.83;;;2.07;;
10248;SDS011;5169;50.560;9.714;2023-12-20T09:41:51;11.87;;;2.40;;
10248;SDS011;5169;50.560;9.714;2023-12-20T09:44:28;4.00;;;1.90;;
10248;SDS011;5169;50.560;9.714;2023-12-20T09:46:54;6.83;;;2.43;;
10248;SDS011;5169;50.560;9.714;2023-12-20T09:49:21;5.37;;;2.53;;
10248;SDS011;5169;50.560;9.714;2023-12-20T09:51:47;5.40;;;2.00;;
10248;SDS011;5169;50.560;9.714;2023-12-20T09:54:15;7.27;;;2.03;;
10248;SDS011;5169;50.560;9.714;2023-12-20T09:56:42;4.30;;;2.00;;
10248;SDS011;5169;50.560;9.714;2023-12-20T09:59:08;4.57;;;1.60;;
10248;SDS011;5169;50.560;9.714;2023-12-20T10:01:35;8.43;;;2.03;;
10248;SDS011;5169;50.560;9.714;2023-12-20T10:04:05;4.97;;;1.60;;
10248;SDS011;5169;50.560;9.714;2023-12-20T10:06:43;6.40;;;2.10;;
10248;SDS011;5169;50.560;9.714;2023-12-20T10:09:09;6.50;;;2.23;;
10248;SDS011;5169;50.560;9.714;2023-12-20T10:11:36;4.10;;;1.83;;
10248;SDS011;5169;50.560;9.714;2023-12-20T10:14:05;4.10;;;2.10;;
10248;SDS011;5169;50.560;9.714;2023-12-20T10:16:31;6.53;;;2.17;;
10248;SDS011;5169;50.560;9.714;2023-12-20T10:19:00;6.93;;;1.87;;
10248;SDS011;5169;50.560;9.714;2023-12-20T10:21:29;3.47;;;1.60;;
10248;SDS011;5169;50.560;9.714;2023-12-20T10:23:55;3.97;;;2.10;;
10248;SDS011;5169;50.560;9.714;2023-12-20T10:26:21;2.50;;;1.57;;
10248;SDS011;5169;50.560;9.714;2023-12-20T10:28:55;5.13;;;1.80;;
10248;SDS011;5169;50.560;9.714;2023-12-20T10:31:31;3.67;;;1.60;;
10248;SDS011;5169;50.560;9.714;2023-12-20T10:34:00;4.20;;;1.60;;
10248;SDS011;5169;50.560;9.714;2023-12-20T10:36:30;2.80;;;1.40;;
10248;SDS011;5169;50.560;9.714;2023-12-20T10:38:57;2.80;;;1.50;;
10248;SDS011;5169;50.560;9.714;2023-12-20T10:41:26;3.37;;;1.60;;
10248;SDS011;5169;50.560;9.714;2023-12-20T10:44:00;4.07;;;1.60;;
10248;SDS011;5169;50.560;9.714;2023-12-20T10:46:30;3.07;;;1.93;;
10248;SDS011;5169;50.560;9.714;2023-12-20T10:48:59;4.80;;;1.57;;
10248;SDS011;5169;50.560;9.714;2023-12-20T10:51:27;6.57;;;1.80;;
10248;SDS011;5169;50.560;9.714;2023-12-20T10:53:56;5.77;;;1.50;;
10248;SDS011;5169;50.560;9.714;2023-12-20T10:56:23;6.77;;;1.80;;
10248;SDS011;5169;50.560;9.714;2023-12-20T10:58:49;4.50;;;1.60;;
10248;SDS011;5169;50.560;9.714;2023-12-20T11:01:16;5.57;;;1.73;;
10248;SDS011;5169;50.560;9.714;2023-12-20T11:03:48;5.47;;;2.00;;
10248;SDS011;5169;50.560;9.714;2023-12-20T11:06:33;3.90;;;2.00;;
10248;SDS011;5169;50.560;9.714;2023-12-20T11:09:16;5.07;;;1.70;;
10248;SDS011;5169;50.560;9.714;2023-12-20T11:12:32;5.23;;;1.53;;
10248;SDS011;5169;50.560;9.714;2023-12-20T11:14:52;5.73;;;1.87;;
10248;SDS011;5169;50.560;9.714;2023-12-20T11:17:22;4.70;;;1.67;;
10248;SDS011;5169;50.560;9.714;2023-12-20T11:22:24;5.20;;;1.50;;
10248;SDS011;5169;50.560;9.714;2023-12-20T11:24:52;6.80;;;2.57;;
10248;SDS011;5169;50.560;9.714;2023-12-20T11:27:19;3.00;;;1.37;;
10248;SDS011;5169;50.560;9.714;2023-12-20T11:29:51;6.57;;;1.70;;
10248;SDS011;5169;50.560;9.714;2023-12-20T11:37:38;4.93;;;2.40;;
10248;SDS011;5169;50.560;9.714;2023-12-20T11:40:11;6.23;;;1.80;;
10248;SDS011;5169;50.560;9.714;2023-12-20T11:42:43;4.93;;;1.50;;
10248;SDS011;5169;50.560;9.714;2023-12-20T11:45:13;4.27;;;1.63;;
10248;SDS011;5169;50.560;9.714;2023-12-20T11:47:43;9.13;;;2.17;;
10248;SDS011;5169;50.560;9.714;2023-12-20T11:50:11;6.90;;;1.70;;
10248;SDS011;5169;50.560;9.714;2023-12-20T11:52:37;5.30;;;1.80;;
10248;SDS011;5169;50.560;9.714;2023-12-20T11:55:05;6.43;;;2.20;;
10248;SDS011;5169;50.560;9.714;2023-12-20T11:57:32;7.17;;;1.90;;
10248;SDS011;5169;50.560;9.714;2023-12-20T12:00:01;5.10;;;1.60;;
10248;SDS011;5169;50.560;9.714;2023-12-20T12:02:29;4.50;;;1.53;;
10248;SDS011;5169;50.560;9.714;2023-12-20T12:04:55;5.40;;;1.63;;
10248;SDS011;5169;50.560;9.714;2023-12-20T12:07:21;6.90;;;1.60;;
10248;SDS011;5169;50.560;9.714;2023-12-20T12:09:49;5.47;;;1.47;;
10248;SDS011;5169;50.560;9.714;2023-12-20T12:12:15;5.20;;;1.70;;
10248;SDS011;5169;50.560;9.714;2023-12-20T12:14:42;6.10;;;1.77;;
10248;SDS011;5169;50.560;9.714;2023-12-20T12:17:12;3.33;;;1.60;;
10248;SDS011;5169;50.560;9.714;2023-12-20T12:19:38;4.37;;;1.70;;
10248;SDS011;5169;50.560;9.714;2023-12-20T12:22:14;5.33;;;1.60;;
10248;SDS011;5169;50.560;9.714;2023-12-20T12:24:44;2.47;;;1.20;;
10248;SDS011;5169;50.560;9.714;2023-12-20T12:27:10;8.00;;;2.20;;
10248;SDS011;5169;50.560;9.714;2023-12-20T12:29:36;4.67;;;1.87;;
10248;SDS011;5169;50.560;9.714;2023-12-20T12:32:06;5.37;;;2.20;;
10248;SDS011;5169;50.560;9.714;2023-12-20T12:34:33;6.23;;;1.80;;
10248;SDS011;5169;50.560;9.714;2023-12-20T12:36:59;5.97;;;2.47;;
10248;SDS011;5169;50.560;9.714;2023-12-20T12:39:28;4.30;;;2.20;;
10248;SDS011;5169;50.560;9.714;2023-12-20T12:41:55;5.07;;;2.57;;
10248;SDS011;5169;50.560;9.714;2023-12-20T12:44:22;4.87;;;1.90;;
10248;SDS011;5169;50.560;9.714;2023-12-20T12:46:49;5.03;;;2.20;;
10248;SDS011;5169;50.560;9.714;2023-12-20T12:49:16;4.23;;;1.90;;
10248;SDS011;5169;50.560;9.714;2023-12-20T12:51:42;5.30;;;1.90;;
10248;SDS011;5169;50.560;9.714;2023-12-20T12:54:08;4.27;;;1.90;;
10248;SDS011;5169;50.560;9.714;2023-12-20T12:56:35;3.20;;;1.67;;
10248;SDS011;5169;50.560;9.714;2023-12-20T12:59:01;4.00;;;1.60;;
10248;SDS011;5169;50.560;9.714;2023-12-20T13:01:27;4.47;;;1.90;;
10248;SDS011;5169;50.560;9.714;2023-12-20T13:03:52;5.53;;;1.80;;
10248;SDS011;5169;50.560;9.714;2023-12-20T13:06:19;3.53;;;2.07;;
10248;SDS011;5169;50.560;9.714;2023-12-20T13:08:45;3.37;;;1.40;;
10248;SDS011;5169;50.560;9.714;2023-12-20T13:11:11;4.67;;;1.40;;
10248;SDS011;5169;50.560;9.714;2023-12-20T13:13:36;7.77;;;1.90;;
10248;SDS011;5169;50.560;9.714;2023-12-20T13:16:04;5.03;;;1.73;;
10248;SDS011;5169;50.560;9.714;2023-12-20T13:18:30;3.57;;;1.70;;
10248;SDS011;5169;50.560;9.714;2023-12-20T13:20:55;3.70;;;1.33;;
10248;SDS011;5169;50.560;9.714;2023-12-20T13:23:21;6.70;;;1.90;;
10248;SDS011;5169;50.560;9.714;2023-12-20T13:25:46;3.07;;;1.30;;
10248;SDS011;5169;50.560;9.714;2023-12-20T13:28:12;3.80;;;1.57;;
10248;SDS011;5169;50.560;9.714;2023-12-20T13:30:43;6.30;;;2.13;;
10248;SDS011;5169;50.560;9.714;2023-12-20T13:33:09;4.33;;;2.03;;
10248;SDS011;5169;50.560;9.714;2023-12-20T13:35:35;4.83;;;1.70;;
10248;SDS011;5169;50.560;9.714;2023-12-20T13:38:01;5.03;;;1.80;;
10248;SDS011;5169;50.560;9.714;2023-12-20T13:40:29;3.83;;;1.60;;
10248;SDS011;5169;50.560;9.714;2023-12-20T13:42:59;4.90;;;1.83;;
10248;SDS011;5169;50.560;9.714;2023-12-20T13:45:25;6.53;;;1.80;;
10248;SDS011;5169;50.560;9.714;2023-12-20T13:47:50;5.83;;;1.73;;
10248;SDS011;5169;50.560;9.714;2023-12-20T13:50:16;5.20;;;1.90;;
10248;SDS011;5169;50.560;9.714;2023-12-20T13:52:41;4.97;;;1.80;;
10248;SDS011;5169;50.560;9.714;2023-12-20T13:55:07;5.63;;;2.03;;
10248;SDS011;5169;50.560;9.714;2023-12-20T13:57:34;6.13;;;1.90;;
10248;SDS011;5169;50.560;9.714;2023-12-20T14:00:06;5.07;;;1.50;;
10248;SDS011;5169;50.560;9.714;2023-12-20T14:02:39;5.03;;;2.40;;
10248;SDS011;5169;50.560;9.714;2023-12-20T14:05:06;3.37;;;1.70;;
10248;SDS011;5169;50.560;9.714;2023-12-20T14:07:32;2.47;;;1.50;;
10248;SDS011;5169;50.560;9.714;2023-12-20T14:09:57;5.57;;;1.50;;
10248;SDS011;5169;50.560;9.714;2023-12-20T14:12:24;4.00;;;1.30;;
10248;SDS011;5169;50.560;9.714;2023-12-20T14:14:52;5.33;;;1.80;;
10248;SDS011;5169;50.560;9.714;2023-12-20T14:17:21;4.40;;;1.83;;
10248;SDS011;5169;50.560;9.714;2023-12-20T14:19:46;3.87;;;1.40;;
10248;SDS011;5169;50.560;9.714;2023-12-20T14:22:12;5.33;;;1.60;;
10248;SDS011;5169;50.560;9.714;2023-12-20T14:24:41;5.87;;;1.50;;
10248;SDS011;5169;50.560;9.714;2023-12-20T14:27:07;5.00;;;1.80;;
10248;SDS011;5169;50.560;9.714;2023-12-20T14:29:34;3.70;;;1.80;;
10248;SDS011;5169;50.560;9.714;2023-12-20T14:32:00;4.33;;;1.70;;
10248;SDS011;5169;50.560;9.714;2023-12-20T14:34:29;5.00;;;1.70;;
10248;SDS011;5169;50.560;9.714;2023-12-20T14:36:55;5.47;;;1.87;;
10248;SDS011;5169;50.560;9.714;2023-12-20T14:39:20;6.23;;;1.90;;
10248;SDS011;5169;50.560;9.714;2023-12-20T14:41:46;4.73;;;1.40;;
10248;SDS011;5169;50.560;9.714;2023-12-20T14:44:11;3.40;;;1.30;;
10248;SDS011;5169;50.560;9.714;2023-12-20T14:46:37;5.13;;;1.57;;
10248;SDS011;5169;50.560;9.714;2023-12-20T14:49:03;5.40;;;1.80;;
10248;SDS011;5169;50.560;9.714;2023-12-20T14:51:31;6.27;;;1.97;;
10248;SDS011;5169;50.560;9.714;2023-12-20T14:54:02;9.70;;;2.30;;
10248;SDS011;5169;50.560;9.714;2023-12-20T14:56:28;6.83;;;1.63;;
10248;SDS011;5169;50.560;9.714;2023-12-20T14:58:53;7.50;;;1.90;;
10248;SDS011;5169;50.560;9.714;2023-12-20T15:01:19;4.93;;;2.00;;
10248;SDS011;5169;50.560;9.714;2023-12-20T15:03:48;5.90;;;2.30;;
10248;SDS011;5169;50.560;9.714;2023-12-20T15:06:16;5.10;;;2.30;;
10248;SDS011;5169;50.560;9.714;2023-12-20T15:08:45;7.97;;;2.63;;